Time;durP1;ratioP1;P1;durP2;ratioP2;P2;SDS_P1;SDS_P2;PMS_P1;PMS_P2;Temp;Humidity;BMP_temperature;BMP_pressure;BME280_temperature;BME280_humidity;BME280_pressure;Samples;Min_cycle;Max_cycle;Signal;HPM_P1;HPM_P2
2022/02/23 00:01:33;;;;;;;9.07;5.47;;;4.00;99.90;;;;;;5097497;28;20196;-90
2022/02/23 00:04:02;;;;;;;7.75;4.65;;;4.00;99.90;;;;;;5099074;28;20200;-90
2022/02/23 00:06:28;;;;;;;9.88;5.10;;;4.00;99.90;;;;;;5086030;28;20229;-87
2022/02/23 00:08:54;;;;;;;11.07;5.57;;;4.00;99.90;;;;;;5098968;28;20291;-92
2022/02/23 00:11:20;;;;;;;7.13;4.53;;;3.90;99.90;;;;;;5079865;28;20817;-88
2022/02/23 00:13:45;;;;;;;6.83;5.17;;;3.90;99.90;;;;;;5079916;28;20865;-92
2022/02/23 00:16:11;;;;;;;10.07;5.20;;;3.90;99.90;;;;;;5105380;28;20401;-88
2022/02/23 00:18:37;;;;;;;10.33;5.00;;;3.90;99.90;;;;;;5080130;28;20211;-92
2022/02/23 00:21:03;;;;;;;7.27;4.97;;;3.90;99.90;;;;;;5095455;28;20449;-88
2022/02/23 00:23:28;;;;;;;8.53;5.00;;;3.90;99.90;;;;;;5077928;28;20204;-93
2022/02/23 00:25:54;;;;;;;9.93;4.73;;;3.90;99.90;;;;;;5077766;28;20432;-91
2022/02/23 00:28:20;;;;;;;7.27;6.07;;;3.90;99.90;;;;;;5095921;28;20253;-88
2022/02/23 00:30:46;;;;;;;9.47;4.40;;;3.90;99.90;;;;;;5095509;28;20181;-85
2022/02/23 00:33:11;;;;;;;11.27;6.57;;;3.90;99.90;;;;;;5078161;28;20200;-92
2022/02/23 00:35:37;;;;;;;7.63;6.13;;;3.90;99.90;;;;;;5095883;28;20691;-92
2022/02/23 00:38:03;;;;;;;10.93;5.20;;;3.90;99.90;;;;;;5077876;28;20232;-93
2022/02/23 00:40:29;;;;;;;6.10;4.72;;;3.90;99.90;;;;;;5095506;28;20464;-92
2022/02/23 00:42:57;;;;;;;12.60;5.63;;;3.90;99.90;;;;;;5095541;28;20201;-88
2022/02/23 00:45:23;;;;;;;10.02;5.43;;;3.90;99.90;;;;;;5099372;28;20914;-86
2022/02/23 00:47:49;;;;;;;12.48;6.22;;;3.90;99.90;;;;;;5103402;28;20196;-93
2022/02/23 00:50:15;;;;;;;10.67;6.33;;;3.90;99.90;;;;;;5098531;28;20177;-91
2022/02/23 00:52:40;;;;;;;12.13;6.20;;;3.90;99.90;;;;;;5097811;28;20208;-87
2022/02/23 00:55:07;;;;;;;8.47;5.30;;;3.90;99.90;;;;;;5108985;28;20412;-89
2022/02/23 00:57:32;;;;;;;13.23;6.35;;;3.90;99.90;;;;;;5094834;28;20192;-91
2022/02/23 00:59:58;;;;;;;11.80;5.47;;;3.90;99.90;;;;;;5076389;28;20215;-88
2022/02/23 01:02:25;;;;;;;12.90;6.80;;;3.90;99.90;;;;;;5095868;28;20235;-86
2022/02/23 01:04:51;;;;;;;11.05;5.70;;;3.90;99.90;;;;;;5095710;28;20168;-92
2022/02/23 01:07:16;;;;;;;10.80;5.07;;;3.90;99.90;;;;;;5094704;28;20325;-87
2022/02/23 01:09:42;;;;;;;10.90;4.73;;;3.90;99.90;;;;;;5095452;28;20181;-92
2022/02/23 01:12:09;;;;;;;8.45;4.60;;;3.90;99.90;;;;;;5093588;28;20200;-87
2022/02/23 01:14:36;;;;;;;11.77;5.85;;;3.90;99.90;;;;;;5076629;28;20228;-89
2022/02/23 01:17:02;;;;;;;7.88;4.85;;;3.90;99.90;;;;;;5094667;28;20188;-93
2022/02/23 01:19:27;;;;;;;10.50;4.80;;;3.90;99.90;;;;;;5094242;28;20179;-88
2022/02/23 01:21:53;;;;;;;7.93;4.37;;;4.00;99.90;;;;;;5093790;28;20423;-92
2022/02/23 01:24:19;;;;;;;12.30;5.10;;;4.00;99.90;;;;;;5095225;28;20686;-87
2022/02/23 01:26:45;;;;;;;12.00;5.17;;;4.00;99.90;;;;;;5094818;28;20313;-92
2022/02/23 01:29:10;;;;;;;8.27;4.40;;;4.00;99.90;;;;;;5085440;28;20391;-91
2022/02/23 01:31:36;;;;;;;8.53;4.47;;;4.00;99.90;;;;;;5097445;28;20417;-87
2022/02/23 01:34:02;;;;;;;8.77;4.37;;;4.00;99.90;;;;;;5094940;28;20204;-87
2022/02/23 01:36:28;;;;;;;8.30;4.10;;;4.00;99.90;;;;;;5094384;28;20176;-91
2022/02/23 01:38:54;;;;;;;6.20;3.63;;;4.00;99.90;;;;;;5095556;28;20200;-87
2022/02/23 01:41:20;;;;;;;10.83;4.20;;;3.90;99.90;;;;;;5093943;28;20295;-91
2022/02/23 01:43:49;;;;;;;6.00;3.47;;;4.00;99.90;;;;;;5095663;28;20208;-87
2022/02/23 01:46:17;;;;;;;10.00;4.75;;;4.00;99.90;;;;;;5094044;28;20551;-92
2022/02/23 01:48:43;;;;;;;6.47;4.22;;;4.00;99.90;;;;;;5094930;28;20289;-88
2022/02/23 01:51:09;;;;;;;6.55;4.25;;;4.00;99.90;;;;;;5095081;28;20172;-87
2022/02/23 01:53:35;;;;;;;8.20;4.20;;;4.00;99.90;;;;;;5094612;28;20208;-92
2022/02/23 01:56:01;;;;;;;5.25;3.70;;;4.10;99.90;;;;;;5095471;28;20165;-87
2022/02/23 01:58:27;;;;;;;10.05;5.18;;;4.10;99.90;;;;;;5095591;28;20204;-88
2022/02/23 02:00:53;;;;;;;5.83;4.10;;;4.10;99.90;;;;;;5093917;28;20212;-87
2022/02/23 02:03:18;;;;;;;11.17;3.87;;;4.10;99.90;;;;;;5096012;28;20207;-91
2022/02/23 02:05:44;;;;;;;11.33;3.87;;;4.10;99.90;;;;;;5095224;28;20169;-86
2022/02/23 02:08:10;;;;;;;5.77;3.70;;;4.10;99.90;;;;;;5100461;28;20681;-90
2022/02/23 02:10:36;;;;;;;8.33;3.80;;;4.00;99.90;;;;;;5080216;28;20184;-92
2022/02/23 02:13:02;;;;;;;10.93;4.30;;;4.00;99.90;;;;;;5098717;28;20948;-92
2022/02/23 02:15:28;;;;;;;5.57;3.88;;;4.00;99.90;;;;;;5085593;28;20240;-88
2022/02/23 02:17:54;;;;;;;8.23;4.27;;;4.00;99.90;;;;;;5100477;28;20244;-92
2022/02/23 02:20:20;;;;;;;13.70;5.00;;;4.00;99.90;;;;;;5081153;28;20295;-86
2022/02/23 02:22:45;;;;;;;10.00;5.03;;;4.00;99.90;;;;;;5083060;28;20336;-93
2022/02/23 02:25:11;;;;;;;10.60;5.87;;;4.00;99.90;;;;;;5100361;28;20168;-91
2022/02/23 02:27:37;;;;;;;16.73;7.23;;;4.00;99.90;;;;;;5099378;28;20207;-90
2022/02/23 02:30:05;;;;;;;17.37;7.60;;;4.10;99.90;;;;;;5081609;28;20187;-87
2022/02/23 02:32:31;;;;;;;12.30;6.05;;;4.10;99.90;;;;;;5101857;28;20203;-92
2022/02/23 02:34:56;;;;;;;13.13;6.60;;;4.10;99.90;;;;;;5097879;28;20255;-86
2022/02/23 02:37:22;;;;;;;13.00;5.97;;;4.20;99.90;;;;;;5079548;28;20210;-87
2022/02/23 02:39:48;;;;;;;12.37;5.50;;;4.20;99.90;;;;;;5097776;28;20204;-91
2022/02/23 02:42:14;;;;;;;9.85;4.95;;;4.20;99.90;;;;;;5080161;28;20423;-87
2022/02/23 02:44:40;;;;;;;9.97;4.47;;;4.30;99.90;;;;;;5079425;28;20184;-86
2022/02/23 02:47:06;;;;;;;10.77;4.50;;;4.30;99.90;;;;;;5079530;28;20453;-93
2022/02/23 02:49:32;;;;;;;10.15;4.60;;;4.30;99.90;;;;;;5079669;28;20638;-86
2022/02/23 02:51:58;;;;;;;7.00;3.20;;;4.30;99.90;;;;;;5098312;28;20176;-88
2022/02/23 02:54:24;;;;;;;5.73;3.20;;;4.40;99.90;;;;;;5089047;28;20413;-87
2022/02/23 02:56:50;;;;;;;10.57;3.33;;;4.40;99.90;;;;;;5097839;28;20177;-88
2022/02/23 02:59:17;;;;;;;5.20;2.83;;;4.40;99.90;;;;;;5099313;28;20272;-90
2022/02/23 03:01:43;;;;;;;6.80;2.85;;;4.50;99.90;;;;;;5097547;28;20767;-92
2022/02/23 03:04:08;;;;;;;5.60;3.43;;;4.60;99.90;;;;;;5082662;28;20180;-87
2022/02/23 03:06:35;;;;;;;7.33;3.03;;;4.60;99.90;;;;;;5078962;28;20229;-87
2022/02/23 03:09:02;;;;;;;4.03;3.17;;;4.70;99.90;;;;;;5097396;28;20189;-88
2022/02/23 03:11:28;;;;;;;6.25;2.70;;;4.70;99.90;;;;;;5097047;28;20179;-87
2022/02/23 03:13:54;;;;;;;8.00;3.97;;;4.80;99.90;;;;;;5098040;28;20779;-92
2022/02/23 03:16:20;;;;;;;8.17;2.90;;;4.90;99.90;;;;;;5080066;28;20200;-86
2022/02/23 03:18:45;;;;;;;4.00;2.90;;;4.90;99.90;;;;;;5097022;28;20660;-88
2022/02/23 03:21:11;;;;;;;8.33;3.30;;;4.90;99.90;;;;;;5097268;28;20972;-87
2022/02/23 03:23:38;;;;;;;3.97;2.50;;;5.00;99.90;;;;;;5083881;28;20208;-93
2022/02/23 03:26:06;;;;;;;6.95;3.45;;;5.00;99.90;;;;;;5096813;28;20387;-87
2022/02/23 03:28:31;;;;;;;5.03;2.53;;;5.10;99.90;;;;;;5096771;28;20199;-87
2022/02/23 03:30:59;;;;;;;10.40;3.27;;;5.10;99.90;;;;;;5078381;28;20188;-87
2022/02/23 03:33:25;;;;;;;4.13;2.70;;;5.20;99.90;;;;;;5098059;28;20585;-93
2022/02/23 03:35:51;;;;;;;3.87;2.70;;;5.20;99.90;;;;;;5098184;28;20214;-85
2022/02/23 03:38:17;;;;;;;2.60;2.40;;;5.20;99.90;;;;;;5080050;28;20197;-93
2022/02/23 03:40:42;;;;;;;4.33;2.67;;;5.20;99.90;;;;;;5098838;28;20925;-87
2022/02/23 03:43:09;;;;;;;5.23;3.13;;;5.30;99.90;;;;;;5082844;28;20204;-89
2022/02/23 03:45:35;;;;;;;9.20;3.40;;;5.30;99.90;;;;;;5087366;28;20412;-87
2022/02/23 03:48:02;;;;;;;5.47;3.73;;;5.30;99.90;;;;;;5096107;28;20200;-87
2022/02/23 03:50:27;;;;;;;7.57;3.22;;;5.40;99.90;;;;;;5096354;28;20393;-93
2022/02/23 03:52:53;;;;;;;10.67;2.87;;;5.40;99.90;;;;;;5079155;28;20349;-92
2022/02/23 03:55:19;;;;;;;6.80;3.20;;;5.40;99.90;;;;;;5097312;28;20409;-87
2022/02/23 03:57:45;;;;;;;4.20;2.40;;;5.40;99.90;;;;;;5079247;28;20460;-88
2022/02/23 04:00:14;;;;;;;6.10;2.83;;;5.40;99.90;;;;;;5079017;28;20865;-87
2022/02/23 04:02:41;;;;;;;8.18;3.05;;;5.40;99.90;;;;;;5097455;28;20712;-87
2022/02/23 04:05:08;;;;;;;4.85;3.03;;;5.40;99.90;;;;;;5079862;28;20667;-92
2022/02/23 04:07:35;;;;;;;6.93;4.55;;;5.40;99.90;;;;;;5080068;28;20245;-93
2022/02/23 04:10:00;;;;;;;7.45;3.10;;;5.40;99.90;;;;;;5080171;28;20208;-87
2022/02/23 04:12:27;;;;;;;5.17;3.30;;;5.40;99.90;;;;;;5081541;28;20215;-87
2022/02/23 04:14:52;;;;;;;6.95;3.25;;;5.50;99.90;;;;;;5077972;28;20501;-92
2022/02/23 04:17:18;;;;;;;6.93;2.83;;;5.50;99.90;;;;;;5099237;28;20235;-88
2022/02/23 04:19:44;;;;;;;5.40;2.80;;;5.50;99.90;;;;;;5078798;28;20208;-91
2022/02/23 04:22:10;;;;;;;5.70;3.40;;;5.50;99.90;;;;;;5096271;28;20193;-93
2022/02/23 04:24:36;;;;;;;7.78;3.40;;;5.60;99.90;;;;;;5096201;28;20176;-87
2022/02/23 04:27:03;;;;;;;5.97;2.65;;;5.60;99.90;;;;;;5077781;28;20609;-92
2022/02/23 04:29:29;;;;;;;3.90;2.90;;;5.60;99.90;;;;;;5096682;28;20190;-88
2022/02/23 04:31:55;;;;;;;5.10;3.13;;;5.60;99.90;;;;;;5095909;28;20172;-93
2022/02/23 04:34:21;;;;;;;6.80;3.53;;;5.70;99.90;;;;;;5078134;28;20173;-86
2022/02/23 04:36:47;;;;;;;5.30;3.10;;;5.70;99.90;;;;;;5103294;28;20182;-88
2022/02/23 04:39:13;;;;;;;7.85;3.70;;;5.70;99.90;;;;;;5080772;28;20180;-93
2022/02/23 04:41:39;;;;;;;7.07;3.70;;;5.70;99.90;;;;;;5077150;28;20212;-88
2022/02/23 04:44:06;;;;;;;8.73;3.30;;;5.80;99.90;;;;;;5077423;28;20564;-88
2022/02/23 04:46:33;;;;;;;2.97;2.15;;;5.80;99.90;;;;;;5078474;28;20412;-93
2022/02/23 04:49:00;;;;;;;6.28;3.55;;;5.80;99.90;;;;;;5095456;28;20208;-93
2022/02/23 04:51:28;;;;;;;6.70;4.18;;;5.80;99.90;;;;;;5095783;28;20183;-93
2022/02/23 04:53:54;;;;;;;9.23;3.38;;;5.80;99.90;;;;;;5058660;28;20201;-93
2022/02/23 04:56:20;;;;;;;5.43;3.40;;;5.90;99.90;;;;;;5075531;28;20182;-92
2022/02/23 04:58:45;;;;;;;3.30;3.00;;;5.90;99.90;;;;;;5057745;28;20449;-94
2022/02/23 05:01:11;;;;;;;12.00;4.47;;;5.90;99.90;;;;;;5077626;28;20208;-87
2022/02/23 05:03:37;;;;;;;7.20;3.70;;;5.90;99.90;;;;;;5080716;28;20242;-87
2022/02/23 05:06:03;;;;;;;8.17;3.60;;;5.90;99.90;;;;;;5076688;28;20173;-88
2022/02/23 05:08:29;;;;;;;7.10;2.90;;;6.00;99.90;;;;;;5081060;28;20417;-86
2022/02/23 05:10:57;;;;;;;4.40;2.77;;;6.00;99.90;;;;;;5056826;28;20169;-93
2022/02/23 05:13:25;;;;;;;8.00;3.17;;;6.00;99.90;;;;;;5068038;28;20948;-93
2022/02/23 05:15:52;;;;;;;6.22;3.63;;;6.00;99.90;;;;;;5127150;27;20169;-86
2022/02/23 05:18:18;;;;;;;4.88;3.70;;;6.00;99.90;;;;;;5094477;28;20205;-93
2022/02/23 05:20:44;;;;;;;5.27;3.43;;;6.00;99.90;;;;;;5095413;28;20200;-86
2022/02/23 05:23:10;;;;;;;5.53;3.43;;;6.00;99.90;;;;;;5095103;28;20451;-87
2022/02/23 05:25:36;;;;;;;7.88;4.15;;;6.00;99.90;;;;;;5094322;28;20207;-93
2022/02/23 05:28:02;;;;;;;11.20;4.10;;;6.00;99.90;;;;;;5095001;28;20204;-93
2022/02/23 05:30:27;;;;;;;6.10;3.50;;;6.00;99.90;;;;;;5097968;28;20399;-86
2022/02/23 05:32:53;;;;;;;13.50;5.80;;;6.10;99.90;;;;;;5111953;28;20413;-88
2022/02/23 05:35:19;;;;;;;10.93;6.47;;;6.10;99.90;;;;;;5093587;28;20449;-92
2022/02/23 05:37:45;;;;;;;11.23;5.40;;;6.10;99.90;;;;;;5092426;28;20687;-93
2022/02/23 05:40:11;;;;;;;8.10;3.83;;;6.20;99.90;;;;;;5092572;28;20200;-90
2022/02/23 05:42:36;;;;;;;8.70;3.90;;;6.20;99.90;;;;;;5095270;28;20283;-87
2022/02/23 05:45:03;;;;;;;8.13;3.93;;;6.30;99.90;;;;;;5097401;28;20234;-93
2022/02/23 05:47:30;;;;;;;5.32;3.28;;;6.30;99.90;;;;;;5099271;28;20196;-87
2022/02/23 05:49:56;;;;;;;10.35;4.13;;;6.30;99.90;;;;;;5099048;28;20188;-92
2022/02/23 05:52:21;;;;;;;13.67;7.10;;;6.30;99.90;;;;;;5099828;28;20420;-93
2022/02/23 05:54:48;;;;;;;8.93;6.20;;;6.30;99.90;;;;;;5097749;28;20172;-91
2022/02/23 05:57:15;;;;;;;7.15;4.20;;;6.30;99.90;;;;;;5100083;28;20203;-92
2022/02/23 05:59:41;;;;;;;108.90;73.85;;;6.30;99.90;;;;;;5118181;28;20673;-86
2022/02/23 06:02:07;;;;;;;67.53;56.47;;;6.30;99.90;;;;;;5102078;28;20192;-91
2022/02/23 06:04:34;;;;;;;51.67;41.43;;;6.30;99.90;;;;;;5099002;28;20447;-91
2022/02/23 06:07:00;;;;;;;41.15;30.65;;;6.30;99.90;;;;;;5097427;28;20173;-86
2022/02/23 06:09:26;;;;;;;15.48;12.15;;;6.30;99.90;;;;;;5099066;28;20177;-93
2022/02/23 06:11:52;;;;;;;9.77;5.23;;;6.30;99.90;;;;;;5098311;28;20172;-86
2022/02/23 06:14:18;;;;;;;6.93;5.27;;;6.20;99.90;;;;;;5098075;28;20439;-87
2022/02/23 06:16:43;;;;;;;6.73;5.07;;;6.20;99.90;;;;;;5105021;28;20406;-94
2022/02/23 06:19:09;;;;;;;13.33;6.47;;;6.30;99.90;;;;;;5101325;28;20185;-88
2022/02/23 06:21:35;;;;;;;7.87;4.33;;;6.20;99.90;;;;;;5101841;28;20239;-86
2022/02/23 06:24:00;;;;;;;9.50;4.93;;;6.30;99.90;;;;;;5101288;28;20208;-93
2022/02/23 06:26:27;;;;;;;10.63;5.20;;;6.30;99.90;;;;;;5101712;28;20211;-86
2022/02/23 06:28:52;;;;;;;19.27;17.42;;;6.30;99.90;;;;;;5104422;28;20207;-87
2022/02/23 06:31:18;;;;;;;12.20;9.13;;;6.30;99.90;;;;;;5103332;28;20216;-86
2022/02/23 06:33:46;;;;;;;8.00;6.07;;;6.30;99.90;;;;;;5100566;28;20210;-88
2022/02/23 06:36:13;;;;;;;11.07;4.85;;;6.30;99.90;;;;;;5099008;28;20176;-93
2022/02/23 06:38:41;;;;;;;10.95;6.15;;;6.30;99.90;;;;;;5102030;28;20207;-93
2022/02/23 06:41:15;;;;;;;9.90;5.95;;;6.30;99.90;;;;;;5099887;28;20681;-87
2022/02/23 06:43:43;;;;;;;11.30;7.82;;;6.40;99.90;;;;;;5121382;27;20276;-93
2022/02/23 06:46:10;;;;;;;8.27;6.50;;;6.40;99.90;;;;;;5097922;28;20176;-93
2022/02/23 06:48:36;;;;;;;8.75;7.70;;;6.40;99.90;;;;;;5100311;28;20208;-93
2022/02/23 06:51:03;;;;;;;15.70;9.13;;;6.40;99.90;;;;;;5100778;28;20172;-93
2022/02/23 06:53:28;;;;;;;15.88;12.32;;;6.40;99.90;;;;;;5096868;28;20204;-93
2022/02/23 06:55:54;;;;;;;32.00;26.23;;;6.50;99.90;;;;;;5091723;28;20548;-93
2022/02/23 06:58:20;;;;;;;18.27;12.87;;;6.40;99.90;;;;;;5095194;28;20663;-86
2022/02/23 07:00:46;;;;;;;17.90;13.00;;;6.40;99.90;;;;;;5093555;28;20508;-86
2022/02/23 07:03:12;;;;;;;18.42;15.40;;;6.50;99.90;;;;;;5092060;28;20475;-86
2022/02/23 07:05:38;;;;;;;18.00;12.57;;;6.50;99.90;;;;;;5092368;28;20212;-86
2022/02/23 07:08:06;;;;;;;15.00;9.40;;;6.50;99.90;;;;;;5101030;28;20920;-86
2022/02/23 07:10:32;;;;;;;10.85;6.88;;;6.50;99.90;;;;;;5092970;28;20176;-93
2022/02/23 07:13:00;;;;;;;34.22;18.10;;;6.50;99.90;;;;;;5092136;28;20244;-93
2022/02/23 07:15:26;;;;;;;18.42;9.45;;;6.60;99.90;;;;;;5073543;28;20305;-93
2022/02/23 07:17:53;;;;;;;33.00;20.90;;;6.60;99.90;;;;;;5073461;28;20200;-91
2022/02/23 07:20:19;;;;;;;17.08;9.13;;;6.70;99.90;;;;;;5092925;28;20212;-86
2022/02/23 07:22:45;;;;;;;12.55;7.30;;;6.70;99.90;;;;;;5074565;28;20196;-86
2022/02/23 07:25:12;;;;;;;8.27;4.47;;;6.80;99.90;;;;;;5098536;28;20180;-87
2022/02/23 07:27:38;;;;;;;10.43;4.35;;;6.80;99.90;;;;;;5081509;28;20213;-93
2022/02/23 07:30:06;;;;;;;8.83;5.00;;;6.90;99.90;;;;;;5091805;28;20184;-93
2022/02/23 07:32:33;;;;;;;8.88;4.28;;;6.90;99.90;;;;;;5076682;28;20448;-91
2022/02/23 07:35:00;;;;;;;6.32;3.30;;;7.00;99.90;;;;;;5091206;28;20263;-93
2022/02/23 07:37:27;;;;;;;6.65;3.50;;;7.00;99.90;;;;;;5080630;28;20692;-93
2022/02/23 07:40:01;;;;;;;12.45;4.18;;;7.00;99.90;;;;;;5100702;28;20215;-90
2022/02/23 07:42:27;;;;;;;10.63;4.18;;;7.10;99.90;;;;;;5104147;28;20208;-92
2022/02/23 07:44:53;;;;;;;9.67;4.87;;;7.10;99.90;;;;;;5108538;28;20176;-92
2022/02/23 07:47:19;;;;;;;8.07;4.67;;;7.20;99.90;;;;;;5109695;28;20184;-92
2022/02/23 07:49:49;;;;;;;12.77;5.23;;;7.20;99.90;;;;;;5129751;27;20184;-92
2022/02/23 07:52:18;;;;;;;8.43;3.97;;;7.20;99.90;;;;;;5109891;28;20232;-92
2022/02/23 07:54:44;;;;;;;7.13;4.07;;;7.30;99.90;;;;;;5099446;28;20196;-92
2022/02/23 07:57:10;;;;;;;10.45;3.92;;;7.40;99.90;;;;;;5081086;28;20185;-94
2022/02/23 07:59:36;;;;;;;11.43;3.40;;;7.40;99.90;;;;;;5079836;28;20225;-93
2022/02/23 08:02:02;;;;;;;9.20;4.00;;;7.40;99.90;;;;;;5074829;28;20914;-95
2022/02/23 08:04:28;;;;;;;5.60;3.47;;;7.50;99.90;;;;;;5095404;28;20645;-93
2022/02/23 08:06:55;;;;;;;5.57;3.00;;;7.50;99.90;;;;;;5088248;28;20417;-94
2022/02/23 08:09:21;;;;;;;9.48;4.38;;;7.50;99.90;;;;;;5085348;28;20191;-94
2022/02/23 08:11:47;;;;;;;11.30;4.33;;;7.50;99.90;;;;;;5096156;28;20184;-94
2022/02/23 08:14:12;;;;;;;5.33;3.30;;;7.50;99.90;;;;;;5095687;28;20265;-95
2022/02/23 08:19:36;;;;;;;4.55;3.17;;;7.60;99.90;;;;;;5096227;28;20456;-94
2022/02/23 08:22:14;;;;;;;6.80;3.70;;;7.60;99.90;;;;;;5082556;28;20790;-94
2022/02/23 08:24:46;;;;;;;4.70;2.67;;;7.70;99.90;;;;;;5095052;28;20165;-94
2022/02/23 08:27:18;;;;;;;4.03;2.40;;;7.70;99.90;;;;;;5076892;28;20280;-93
2022/02/23 08:29:45;;;;;;;3.00;2.35;;;7.80;99.90;;;;;;5078537;28;20226;-94
2022/02/23 08:32:13;;;;;;;6.40;3.88;;;7.90;99.90;;;;;;5078809;28;20192;-94
2022/02/23 08:34:42;;;;;;;5.20;2.70;;;8.00;99.90;;;;;;5083001;28;20176;-93
2022/02/23 08:37:08;;;;;;;3.95;2.30;;;8.20;99.90;;;;;;5077696;28;20645;-94
2022/02/23 08:39:35;;;;;;;5.82;2.70;;;8.70;99.90;;;;;;5095155;28;20216;-87
2022/02/23 08:42:02;;;;;;;3.92;2.20;;;9.30;99.90;;;;;;5074613;28;20222;-87
2022/02/23 08:44:28;;;;;;;4.68;3.78;;;9.60;99.90;;;;;;5086525;28;20185;-87
2022/02/23 08:46:55;;;;;;;3.90;2.93;;;9.70;99.90;;;;;;5093949;28;20196;-87
2022/02/23 08:49:21;;;;;;;6.05;4.28;;;9.70;99.90;;;;;;5096327;28;20520;-87
2022/02/23 08:51:47;;;;;;;3.53;2.40;;;9.70;99.90;;;;;;5102404;28;20229;-87
2022/02/23 08:54:17;;;;;;;5.90;2.90;;;9.60;99.90;;;;;;5093068;28;20575;-87
2022/02/23 08:56:44;;;;;;;8.15;2.30;;;9.40;99.90;;;;;;5072189;28;20203;-94
2022/02/23 08:59:10;;;;;;;19.83;11.43;;;9.40;99.90;;;;;;5075887;28;20181;-87
2022/02/23 09:01:36;;;;;;;8.32;4.45;;;9.40;99.90;;;;;;5109816;28;20589;-87
2022/02/23 09:04:03;;;;;;;13.10;8.43;;;9.40;99.90;;;;;;5078053;28;20205;-88
2022/02/23 09:06:36;;;;;;;7.70;3.55;;;9.50;99.90;;;;;;5093142;28;20364;-92
2022/02/23 09:09:08;;;;;;;3.92;2.80;;;9.60;99.90;;;;;;5073068;28;20536;-93
2022/02/23 09:11:34;;;;;;;3.70;2.60;;;9.70;99.90;;;;;;5068840;28;20241;-87
2022/02/23 09:14:00;;;;;;;10.63;2.70;;;9.60;99.90;;;;;;5073790;28;20240;-94
2022/02/23 09:16:27;;;;;;;5.07;2.58;;;9.70;99.90;;;;;;5114952;27;20428;-92
2022/02/23 09:18:52;;;;;;;6.67;2.67;;;9.70;99.90;;;;;;5093048;28;20317;-92
2022/02/23 09:21:18;;;;;;;3.80;2.90;;;9.70;99.90;;;;;;5093881;28;20598;-92
2022/02/23 09:23:44;;;;;;;4.50;2.27;;;9.70;99.90;;;;;;5092898;28;20242;-93
2022/02/23 09:26:09;;;;;;;5.23;1.90;;;9.60;99.90;;;;;;5113666;27;20203;-91
2022/02/23 09:28:37;;;;;;;4.60;2.43;;;9.60;99.90;;;;;;5090958;28;20245;-92
2022/02/23 09:31:07;;;;;;;7.43;3.53;;;9.50;99.90;;;;;;5094408;28;20238;-92
2022/02/23 09:33:33;;;;;;;9.90;5.88;;;9.50;99.90;;;;;;5093131;28;20215;-93
2022/02/23 09:36:02;;;;;;;5.15;2.97;;;9.50;99.90;;;;;;5095117;28;20523;-92
2022/02/23 09:38:30;;;;;;;4.75;2.90;;;9.50;99.90;;;;;;5088764;28;20192;-92
2022/02/23 09:40:58;;;;;;;4.47;2.95;;;9.50;99.90;;;;;;5098707;28;20226;-92
2022/02/23 09:43:24;;;;;;;4.10;2.88;;;9.50;99.90;;;;;;5092968;28;20201;-93
2022/02/23 09:45:53;;;;;;;6.53;2.90;;;9.40;99.90;;;;;;5092482;28;20214;-92
2022/02/23 09:48:24;;;;;;;9.98;4.28;;;9.40;99.90;;;;;;5104730;28;20257;-93
2022/02/23 09:50:51;;;;;;;16.67;8.73;;;9.20;99.90;;;;;;5099407;28;20176;-88
2022/02/23 09:53:17;;;;;;;14.27;7.65;;;9.10;99.90;;;;;;5093153;28;20198;-87
2022/02/23 09:55:43;;;;;;;9.45;5.45;;;9.00;99.90;;;;;;5093103;28;20182;-88
2022/02/23 09:58:09;;;;;;;5.90;3.20;;;8.90;99.90;;;;;;5094812;28;20881;-88
2022/02/23 10:00:35;;;;;;;4.00;3.47;;;8.80;99.90;;;;;;5090559;28;20677;-87
2022/02/23 10:03:01;;;;;;;10.37;2.70;;;8.80;99.90;;;;;;5093189;28;20208;-89
2022/02/23 10:05:26;;;;;;;4.40;2.80;;;8.70;99.90;;;;;;5099118;28;20181;-88
2022/02/23 10:08:03;;;;;;;4.83;2.63;;;8.70;99.90;;;;;;5089716;28;20867;-87
2022/02/23 10:10:36;;;;;;;6.88;3.03;;;8.60;99.90;;;;;;5084765;28;20419;-92
2022/02/23 10:13:03;;;;;;;5.65;2.80;;;8.60;99.90;;;;;;5107389;28;20326;-93
2022/02/23 10:15:40;;;;;;;3.28;2.72;;;8.50;99.90;;;;;;5091915;28;20176;-94
2022/02/23 10:18:19;;;;;;;6.13;3.40;;;8.50;99.90;;;;;;5088824;28;20206;-87
2022/02/23 10:20:48;;;;;;;3.03;2.70;;;8.40;99.90;;;;;;5083790;28;20213;-88
2022/02/23 10:23:19;;;;;;;5.93;3.38;;;8.40;99.90;;;;;;5087659;28;20200;-93
2022/02/23 10:25:51;;;;;;;7.03;3.13;;;8.40;99.90;;;;;;5086597;28;20231;-93
2022/02/23 10:28:21;;;;;;;10.07;3.75;;;8.40;99.90;;;;;;5089256;28;20201;-92
2022/02/23 10:30:51;;;;;;;6.57;3.58;;;8.40;99.90;;;;;;5089768;28;20208;-92
2022/02/23 10:33:30;;;;;;;6.97;3.20;;;8.40;99.90;;;;;;5095428;28;20227;-92
2022/02/23 10:36:02;;;;;;;6.05;3.13;;;8.50;99.90;;;;;;5100812;28;20180;-93
2022/02/23 10:39:00;;;;;;;7.65;3.40;;;8.50;99.90;;;;;;5096405;28;20219;-93
2022/02/23 10:41:30;;;;;;;4.07;2.20;;;8.60;99.90;;;;;;5089722;28;20291;-94
2022/02/23 10:43:56;;;;;;;5.53;2.97;;;8.80;99.90;;;;;;5091604;28;20200;-88
2022/02/23 10:46:23;;;;;;;5.40;2.40;;;9.00;99.90;;;;;;5092908;28;20254;-88
2022/02/23 10:48:56;;;;;;;8.23;4.50;;;9.10;99.90;;;;;;5085859;28;20460;-88
2022/02/23 10:51:32;;;;;;;6.07;2.72;;;9.30;99.90;;;;;;5090138;28;20188;-88
2022/02/23 10:54:06;;;;;;;2.70;2.00;;;9.60;99.90;;;;;;5093474;28;20204;-88
2022/02/23 10:56:35;;;;;;;5.97;2.90;;;9.80;99.90;;;;;;5094542;28;20184;-93
2022/02/23 10:59:03;;;;;;;5.82;3.30;;;10.00;99.90;;;;;;5091782;28;20245;-89
2022/02/23 11:01:30;;;;;;;3.50;2.47;;;10.10;99.90;;;;;;5112926;28;20212;-91
2022/02/23 11:03:56;;;;;;;4.05;2.30;;;10.30;99.90;;;;;;5106875;28;20200;-93
2022/02/23 11:06:23;;;;;;;6.28;3.20;;;10.30;99.90;;;;;;5098238;28;20646;-88
2022/02/23 11:08:56;;;;;;;7.18;3.13;;;10.40;99.90;;;;;;5093477;28;20235;-94
2022/02/23 11:11:23;;;;;;;3.08;2.05;;;10.60;99.90;;;;;;5095098;28;20230;-94
2022/02/23 11:13:50;;;;;;;4.57;3.00;;;10.70;99.90;;;;;;5095699;28;20232;-93
2022/02/23 11:16:17;;;;;;;3.58;2.60;;;10.90;99.90;;;;;;5093978;28;20234;-93
2022/02/23 11:18:47;;;;;;;5.28;2.75;;;11.00;99.90;;;;;;5093301;28;20200;-94
2022/02/23 11:21:16;;;;;;;4.78;3.10;;;11.10;99.90;;;;;;5092459;28;20749;-89
2022/02/23 11:23:44;;;;;;;3.67;2.53;;;11.30;99.90;;;;;;5092692;28;20654;-87
2022/02/23 11:26:15;;;;;;;10.63;4.07;;;11.40;99.90;;;;;;5088462;28;20314;-88
2022/02/23 11:28:56;;;;;;;5.25;2.92;;;11.60;99.90;;;;;;5090785;28;20208;-87
2022/02/23 11:31:23;;;;;;;4.00;2.80;;;11.80;99.90;;;;;;5090521;28;20180;-88
2022/02/23 11:34:04;;;;;;;4.88;2.90;;;12.10;99.90;;;;;;5092125;28;20211;-88
2022/02/23 11:36:38;;;;;;;7.10;3.95;;;12.20;99.90;;;;;;5081898;28;20192;-93
2022/02/23 11:39:06;;;;;;;4.90;2.95;;;12.50;99.90;;;;;;5083351;28;20200;-93
2022/02/23 11:41:38;;;;;;;5.70;3.53;;;12.70;99.90;;;;;;5089652;28;20204;-93
2022/02/23 11:44:27;;;;;;;4.97;2.97;;;12.80;99.90;;;;;;5090255;28;20341;-88
2022/02/23 11:46:59;;;;;;;6.43;3.53;;;13.00;99.90;;;;;;5090038;28;20437;-88
2022/02/23 11:49:30;;;;;;;5.03;3.17;;;13.00;99.90;;;;;;5088828;28;20440;-88
2022/02/23 11:52:16;;;;;;;7.13;4.53;;;13.10;99.90;;;;;;5084421;28;20421;-87
2022/02/23 11:54:54;;;;;;;3.60;2.90;;;13.20;99.90;;;;;;5087366;28;20437;-88
2022/02/23 11:57:38;;;;;;;4.90;3.43;;;13.30;99.90;;;;;;5088043;28;20460;-88
2022/02/23 12:00:07;;;;;;;8.07;4.33;;;13.40;99.90;;;;;;5082215;28;20453;-89
2022/02/23 12:02:34;;;;;;;10.90;3.27;;;13.50;99.90;;;;;;5106570;28;20448;-88
2022/02/23 12:05:00;;;;;;;5.43;2.73;;;13.50;99.90;;;;;;5084396;28;20449;-88
2022/02/23 12:07:26;;;;;;;6.10;3.10;;;13.50;99.90;;;;;;5089099;28;20456;-88
2022/02/23 12:09:52;;;;;;;5.43;2.47;;;13.60;99.90;;;;;;5086024;28;20439;-87
2022/02/23 12:12:36;;;;;;;5.80;2.63;;;13.60;99.90;;;;;;5084460;28;20456;-87
2022/02/23 12:15:07;;;;;;;4.37;2.27;;;13.60;99.90;;;;;;5086601;28;20227;-87
2022/02/23 12:17:53;;;;;;;5.30;2.43;;;13.50;99.90;;;;;;5078635;28;20452;-88
2022/02/23 12:20:42;;;;;;;6.23;1.97;;;13.50;99.40;;;;;;5084658;28;20537;-88
2022/02/23 12:23:18;;;;;;;6.30;2.60;;;13.40;98.70;;;;;;5090597;28;20472;-94
2022/02/23 12:25:51;;;;;;;8.30;1.80;;;13.50;97.20;;;;;;5098672;28;20448;-93
2022/02/23 12:28:17;;;;;;;12.67;2.50;;;13.50;95.80;;;;;;5106807;28;20464;-92
2022/02/23 12:31:12;;;;;;;17.23;3.27;;;13.50;96.70;;;;;;5107694;28;20490;-93
2022/02/23 12:33:39;;;;;;;11.97;3.13;;;13.50;96.60;;;;;;5091900;28;20526;-92
2022/02/23 12:36:07;;;;;;;15.13;3.10;;;13.60;96.30;;;;;;5097307;28;20421;-93
2022/02/23 12:38:36;;;;;;;16.17;3.93;;;13.60;96.50;;;;;;5122445;27;20490;-93
2022/02/23 12:41:10;;;;;;;10.10;2.53;;;13.60;96.90;;;;;;5112379;27;21007;-92
2022/02/23 12:43:37;;;;;;;5.80;2.53;;;13.60;97.00;;;;;;5128284;27;20448;-88
2022/02/23 12:46:03;;;;;;;12.67;3.40;;;13.70;96.70;;;;;;5108163;28;20424;-92
2022/02/23 12:48:35;;;;;;;8.53;2.10;;;13.80;96.60;;;;;;5095138;28;20464;-88
2022/02/23 12:51:04;;;;;;;8.00;1.67;;;13.80;96.10;;;;;;5091704;28;20456;-88
2022/02/23 12:53:33;;;;;;;10.57;2.30;;;13.80;95.00;;;;;;5092015;28;20532;-89
2022/02/23 12:56:25;;;;;;;6.73;2.40;;;13.80;93.90;;;;;;5069756;28;20425;-89
2022/02/23 12:58:59;;;;;;;7.00;2.17;;;13.70;93.10;;;;;;5086383;28;20456;-89